Time;durP1;ratioP1;P1;durP2;ratioP2;P2;SDS_P1;SDS_P2;PMS_P1;PMS_P2;Temp;Humidity;BMP_temperature;BMP_pressure;BME280_temperature;BME280_humidity;BME280_pressure;Samples;Min_cycle;Max_cycle;Signal;HPM_P1;HPM_P2
2023/07/23 00:00:35;;;;;;;2.83;2.63;;;;;;;19.09;86.30;99943.38;5015986;28;20197;-75
2023/07/23 00:03:01;;;;;;;3.57;2.80;;;;;;;19.04;86.97;99941.00;5016292;28;20183;-76
2023/07/23 00:05:27;;;;;;;2.57;2.37;;;;;;;19.00;86.51;99943.81;5018457;28;20266;-76
2023/07/23 00:07:57;;;;;;;3.10;2.90;;;;;;;18.97;87.02;99939.59;5014163;28;20187;-76
2023/07/23 00:10:23;;;;;;;2.97;2.67;;;;;;;18.95;87.03;99935.34;5016570;28;20195;-76
2023/07/23 00:12:50;;;;;;;3.20;2.90;;;;;;;18.92;86.91;99943.31;5017730;28;20554;-77
2023/07/23 00:15:16;;;;;;;3.00;2.70;;;;;;;18.91;86.99;99946.88;5019695;28;21075;-79
2023/07/23 00:17:41;;;;;;;3.20;2.97;;;;;;;18.91;87.34;99941.63;5017542;28;20181;-76
2023/07/23 00:20:09;;;;;;;3.20;2.90;;;;;;;18.90;88.30;99951.28;5021154;28;20652;-78
2023/07/23 00:22:34;;;;;;;3.57;2.90;;;;;;;18.88;88.05;99947.88;5016404;28;20255;-76
2023/07/23 00:25:00;;;;;;;3.27;2.80;;;;;;;18.86;87.87;99947.94;5012507;28;20200;-76
2023/07/23 00:27:25;;;;;;;3.00;2.80;;;;;;;18.86;88.27;99947.09;5017660;28;20206;-75
2023/07/23 00:29:51;;;;;;;3.20;3.00;;;;;;;18.84;88.78;99944.53;5020349;28;20613;-75
2023/07/23 00:32:16;;;;;;;3.10;2.90;;;;;;;18.83;88.85;99939.38;5016851;28;20189;-78
2023/07/23 00:34:41;;;;;;;3.80;2.90;;;;;;;18.82;89.53;99935.06;5012799;28;20182;-77
2023/07/23 00:37:07;;;;;;;3.37;3.07;;;;;;;18.78;88.94;99942.22;5018675;28;20286;-76
2023/07/23 00:39:32;;;;;;;3.53;2.73;;;;;;;18.76;89.53;99930.97;5022087;28;20212;-76
2023/07/23 00:41:57;;;;;;;2.90;2.70;;;;;;;18.74;89.21;99936.31;5021528;28;20322;-76
2023/07/23 00:44:23;;;;;;;2.70;2.50;;;;;;;18.73;89.73;99938.97;5017318;28;20197;-76
2023/07/23 00:46:48;;;;;;;2.90;2.70;;;;;;;18.71;89.96;99939.06;5020350;28;20251;-76
2023/07/23 00:49:13;;;;;;;3.50;2.60;;;;;;;18.70;90.29;99936.50;5012166;28;20215;-77
2023/07/23 00:51:40;;;;;;;2.93;2.73;;;;;;;18.69;90.43;99933.03;5022685;28;20188;-75
2023/07/23 00:54:06;;;;;;;3.33;3.03;;;;;;;18.66;90.42;99927.94;5018417;28;20542;-77
2023/07/23 00:56:34;;;;;;;3.50;2.53;;;;;;;18.65;90.41;99928.88;5019510;28;20815;-76
2023/07/23 00:59:00;;;;;;;3.10;2.83;;;;;;;18.65;90.25;99934.09;5019944;28;21283;-76
2023/07/23 01:01:25;;;;;;;2.87;2.67;;;;;;;18.64;90.70;99924.53;5013474;28;20695;-77
2023/07/23 01:03:51;;;;;;;2.83;2.63;;;;;;;18.64;90.46;99921.09;5014744;28;20195;-76
2023/07/23 01:06:17;;;;;;;3.03;2.83;;;;;;;18.61;90.55;99923.84;5018943;28;20189;-76
2023/07/23 01:08:44;;;;;;;2.90;2.70;;;;;;;18.59;90.78;99911.66;5016438;28;20213;-76
2023/07/23 01:11:10;;;;;;;2.70;2.50;;;;;;;18.58;90.83;99920.44;5023452;28;20179;-78
2023/07/23 01:13:37;;;;;;;2.77;2.57;;;;;;;18.57;91.05;99916.13;5019100;28;20214;-76
2023/07/23 01:16:07;;;;;;;3.80;2.67;;;;;;;18.55;91.15;99914.53;5013668;28;20630;-75
2023/07/23 01:18:35;;;;;;;2.70;2.50;;;;;;;18.53;91.11;99913.75;5020753;28;20593;-76
2023/07/23 01:21:01;;;;;;;2.53;2.33;;;;;;;18.53;91.61;99911.13;5014002;28;20943;-77
2023/07/23 01:23:26;;;;;;;2.73;2.50;;;;;;;18.51;92.22;99918.19;5019238;28;20187;-76
2023/07/23 01:25:51;;;;;;;2.70;2.50;;;;;;;18.48;92.32;99911.34;5006603;28;20259;-77
2023/07/23 01:28:17;;;;;;;2.63;2.30;;;;;;;18.46;92.76;99912.31;5017036;28;20761;-76
2023/07/23 01:30:42;;;;;;;2.60;2.40;;;;;;;18.42;92.60;99904.63;5015209;28;20184;-77
2023/07/23 01:33:07;;;;;;;3.07;2.63;;;;;;;18.39;93.35;99901.28;5016215;28;20198;-77
2023/07/23 01:35:33;;;;;;;2.63;2.43;;;;;;;18.34;93.02;99901.50;5021004;28;20302;-76
2023/07/23 01:37:59;;;;;;;2.70;2.50;;;;;;;18.31;93.47;99906.88;5015947;28;20707;-77
2023/07/23 01:40:25;;;;;;;2.93;2.53;;;;;;;18.27;93.87;99900.13;5017067;28;20187;-76
2023/07/23 01:42:50;;;;;;;2.50;2.30;;;;;;;18.23;94.04;99902.00;5013303;28;20565;-76
2023/07/23 01:45:15;;;;;;;2.57;2.37;;;;;;;18.19;94.18;99891.75;5011982;28;20228;-75
2023/07/23 01:47:41;;;;;;;2.80;2.60;;;;;;;18.13;94.22;99888.53;5016949;28;20183;-76
2023/07/23 01:50:07;;;;;;;3.10;2.80;;;;;;;18.10;93.71;99895.66;5017282;28;20172;-77
2023/07/23 01:52:32;;;;;;;2.90;2.33;;;;;;;18.06;93.94;99894.97;5015541;28;20192;-76
2023/07/23 01:54:58;;;;;;;2.67;2.47;;;;;;;18.02;94.16;99892.56;5016875;28;20238;-76
2023/07/23 01:57:23;;;;;;;3.10;2.80;;;;;;;17.98;94.70;99895.31;5017685;28;20219;-76
2023/07/23 01:59:48;;;;;;;2.50;2.30;;;;;;;17.94;94.75;99896.34;5009172;28;20199;-76
2023/07/23 02:02:14;;;;;;;2.60;2.40;;;;;;;17.88;94.80;99891.41;5016449;28;20194;-76
2023/07/23 02:04:39;;;;;;;2.77;2.57;;;;;;;17.83;95.22;99890.75;5021403;28;20230;-77
2023/07/23 02:07:04;;;;;;;2.97;2.77;;;;;;;17.79;95.41;99890.03;5019352;28;20530;-77
2023/07/23 02:09:29;;;;;;;2.57;2.37;;;;;;;17.75;95.62;99883.25;5014124;28;20220;-76
2023/07/23 02:11:55;;;;;;;3.13;2.93;;;;;;;17.71;96.19;99884.28;5019794;28;20219;-76
2023/07/23 02:14:20;;;;;;;2.80;2.60;;;;;;;17.69;96.28;99883.53;5017933;28;20187;-76
2023/07/23 02:16:45;;;;;;;2.70;2.50;;;;;;;17.66;96.67;99889.75;5020307;28;20265;-77
2023/07/23 02:19:12;;;;;;;2.70;2.50;;;;;;;17.65;96.47;99887.19;5016083;28;20266;-76
2023/07/23 02:21:38;;;;;;;2.70;2.50;;;;;;;17.63;96.61;99891.66;5016714;28;20196;-76
2023/07/23 02:24:05;;;;;;;2.43;2.23;;;;;;;17.60;96.61;99887.41;5018655;28;20188;-75
2023/07/23 02:26:30;;;;;;;2.70;2.50;;;;;;;17.58;96.55;99888.38;5014054;28;20215;-75
2023/07/23 02:28:55;;;;;;;2.90;2.70;;;;;;;17.55;96.54;99891.13;5023573;28;20319;-76
2023/07/23 02:31:21;;;;;;;3.10;2.90;;;;;;;17.55;96.56;99891.13;5012322;28;20187;-76
2023/07/23 02:33:46;;;;;;;3.10;2.90;;;;;;;17.53;96.66;99888.59;5020126;28;20195;-75
2023/07/23 02:36:11;;;;;;;2.50;2.30;;;;;;;17.52;97.06;99886.88;5016523;28;20765;-76
2023/07/23 02:38:37;;;;;;;3.00;2.80;;;;;;;17.50;97.03;99893.94;5020608;28;20231;-76
2023/07/23 02:41:02;;;;;;;2.50;2.17;;;;;;;17.49;97.44;99894.88;5021550;28;20760;-76
2023/07/23 02:43:28;;;;;;;2.90;2.70;;;;;;;17.46;97.91;99895.03;5026447;28;20673;-76
2023/07/23 02:45:53;;;;;;;3.20;2.90;;;;;;;17.45;97.75;99894.16;5018474;28;20190;-76
2023/07/23 02:48:18;;;;;;;3.00;2.70;;;;;;;17.45;97.43;99895.94;5024510;28;20577;-76
2023/07/23 02:50:44;;;;;;;2.70;2.50;;;;;;;17.43;97.66;99884.69;5018839;28;20644;-76
2023/07/23 02:53:09;;;;;;;3.03;2.70;;;;;;;17.41;97.43;99887.34;5023648;28;20215;-77
2023/07/23 02:55:34;;;;;;;3.13;2.93;;;;;;;17.41;97.43;99894.38;5014830;28;20210;-77
2023/07/23 02:58:03;;;;;;;2.97;2.77;;;;;;;17.40;96.39;99890.06;5023018;28;20211;-76
2023/07/23 03:00:28;;;;;;;2.73;2.53;;;;;;;17.40;96.06;99895.28;5016976;28;20706;-77
2023/07/23 03:02:55;;;;;;;2.77;2.57;;;;;;;17.42;95.53;99893.44;5023297;28;20277;-76
2023/07/23 03:05:20;;;;;;;2.83;2.63;;;;;;;17.43;95.33;99893.38;5019587;28;20203;-76
2023/07/23 03:07:46;;;;;;;3.63;2.90;;;;;;;17.46;95.09;99888.00;5015742;28;20197;-76
2023/07/23 03:10:12;;;;;;;3.27;2.97;;;;;;;17.49;95.19;99895.72;5015973;28;20190;-77
2023/07/23 03:12:37;;;;;;;3.20;2.90;;;;;;;17.52;94.73;99897.34;5037027;28;20194;-76
2023/07/23 03:15:03;;;;;;;2.70;2.50;;;;;;;17.55;94.48;99897.22;5018549;28;20222;-76
2023/07/23 03:17:28;;;;;;;3.23;3.03;;;;;;;17.57;93.88;99895.41;5017248;28;20199;-77
2023/07/23 03:19:54;;;;;;;2.53;2.30;;;;;;;17.59;93.98;99888.34;5021824;28;20253;-76
2023/07/23 03:22:20;;;;;;;3.70;2.83;;;;;;;17.61;93.92;99888.25;5019683;28;20576;-76
2023/07/23 03:24:45;;;;;;;2.87;2.60;;;;;;;17.63;93.80;99899.50;5020609;28;20209;-76
2023/07/23 03:27:11;;;;;;;3.63;2.83;;;;;;;17.64;93.57;99896.81;5016641;28;20236;-75
2023/07/23 03:29:36;;;;;;;2.50;2.30;;;;;;;17.64;93.65;99894.19;5038403;28;20215;-76
2023/07/23 03:32:02;;;;;;;2.47;2.27;;;;;;;17.65;93.86;99895.88;5021076;28;20688;-77
2023/07/23 03:34:27;;;;;;;2.67;2.47;;;;;;;17.65;93.86;99898.50;5017363;28;20271;-78
2023/07/23 03:36:52;;;;;;;3.10;2.80;;;;;;;17.66;93.34;99894.13;5017204;28;20297;-76
2023/07/23 03:39:18;;;;;;;2.40;2.17;;;;;;;17.68;93.00;99895.75;5019322;28;20226;-76
2023/07/23 03:41:47;;;;;;;2.60;2.40;;;;;;;17.72;92.87;99887.78;5017771;28;20223;-76
2023/07/23 03:44:13;;;;;;;3.00;2.80;;;;;;;17.75;92.18;99900.72;5016738;28;20180;-76
2023/07/23 03:46:43;;;;;;;2.90;2.43;;;;;;;17.79;91.80;99902.25;5020603;28;20180;-76
2023/07/23 03:49:09;;;;;;;2.50;2.30;;;;;;;17.82;91.46;99904.75;5015910;28;20215;-76
2023/07/23 03:51:34;;;;;;;2.60;2.40;;;;;;;17.87;91.24;99902.78;5019172;28;20204;-76
2023/07/23 03:53:59;;;;;;;2.80;2.60;;;;;;;17.90;91.12;99905.28;5014399;28;20684;-77
2023/07/23 03:56:25;;;;;;;2.60;2.40;;;;;;;17.96;90.68;99914.59;5014862;28;20271;-76
2023/07/23 03:58:50;;;;;;;2.50;2.30;;;;;;;18.00;90.80;99908.31;5019090;28;20290;-75
2023/07/23 04:01:15;;;;;;;3.70;2.73;;;;;;;18.06;90.24;99913.28;5018071;28;20552;-75
2023/07/23 04:03:41;;;;;;;2.80;2.60;;;;;;;18.12;90.11;99910.41;5020614;28;20636;-77
2023/07/23 04:06:06;;;;;;;3.10;2.80;;;;;;;18.20;89.89;99915.28;5018597;28;20187;-76
2023/07/23 04:08:32;;;;;;;2.67;2.43;;;;;;;18.23;89.91;99915.09;5017241;28;20216;-77
2023/07/23 04:10:57;;;;;;;2.53;2.33;;;;;;;18.30;89.34;99909.59;5018758;28;20183;-77
2023/07/23 04:13:22;;;;;;;2.83;2.63;;;;;;;18.37;89.58;99918.88;5018549;28;20606;-76
2023/07/23 04:15:47;;;;;;;3.47;3.17;;;;;;;18.46;87.87;99922.81;5017799;28;20262;-77
2023/07/23 04:18:13;;;;;;;3.50;2.60;;;;;;;18.52;88.29;99925.13;5024639;28;20248;-77
2023/07/23 04:20:40;;;;;;;2.77;2.57;;;;;;;18.57;87.77;99929.22;5021424;28;20975;-74
2023/07/23 04:23:05;;;;;;;2.80;2.53;;;;;;;18.65;87.38;99931.47;5022629;28;20191;-77
2023/07/23 04:25:31;;;;;;;2.50;2.30;;;;;;;18.71;87.12;99930.34;5015038;28;20331;-77
2023/07/23 04:27:56;;;;;;;3.00;2.70;;;;;;;18.77;87.14;99932.66;5019760;28;20188;-76
2023/07/23 04:30:21;;;;;;;3.03;2.73;;;;;;;18.83;86.87;99929.72;5014565;28;20275;-77
2023/07/23 04:32:46;;;;;;;2.33;2.13;;;;;;;18.87;86.69;99931.28;5037209;28;20199;-76
2023/07/23 04:35:12;;;;;;;2.70;2.50;;;;;;;18.93;86.13;99939.78;5039103;28;20251;-77
2023/07/23 04:37:37;;;;;;;2.70;2.50;;;;;;;18.99;86.02;99936.88;5018832;28;20626;-76
2023/07/23 04:40:03;;;;;;;2.60;2.40;;;;;;;19.10;86.12;99942.44;5018908;28;20220;-76
2023/07/23 04:42:28;;;;;;;2.90;2.60;;;;;;;19.28;86.04;99939.81;5017690;28;20194;-76
2023/07/23 04:44:54;;;;;;;2.80;2.60;;;;;;;19.43;85.84;99952.16;5020605;28;20269;-76
2023/07/23 04:47:19;;;;;;;2.70;2.47;;;;;;;19.59;85.74;99949.59;5018148;28;20271;-76
2023/07/23 04:49:44;;;;;;;3.07;2.60;;;;;;;19.84;85.75;99948.28;5013824;28;20205;-76
2023/07/23 04:52:10;;;;;;;3.00;2.80;;;;;;;20.10;84.73;99944.28;5022338;28;20201;-76
2023/07/23 04:54:36;;;;;;;2.77;2.57;;;;;;;20.27;83.75;99954.81;5018282;28;20324;-76
2023/07/23 04:57:01;;;;;;;2.73;2.53;;;;;;;20.40;83.48;99943.53;5018780;28;20306;-77
2023/07/23 04:59:26;;;;;;;2.70;2.50;;;;;;;20.56;81.97;99945.31;5017814;28;20642;-75
2023/07/23 05:01:52;;;;;;;2.87;2.67;;;;;;;20.75;81.44;99939.88;5017613;28;20586;-76
2023/07/23 05:04:17;;;;;;;2.63;2.30;;;;;;;20.91;80.08;99942.50;5013517;28;20184;-77
2023/07/23 05:06:42;;;;;;;3.27;2.57;;;;;;;20.99;79.94;99942.88;5013381;28;20198;-78
2023/07/23 05:09:08;;;;;;;2.70;2.47;;;;;;;21.02;79.58;99947.97;5026870;28;20258;-78
2023/07/23 05:11:33;;;;;;;2.60;2.40;;;;;;;20.97;78.61;99949.19;5019042;28;20639;-76
2023/07/23 05:13:58;;;;;;;3.17;2.87;;;;;;;21.00;78.81;99954.28;5019234;28;20244;-77
2023/07/23 05:16:23;;;;;;;3.10;2.73;;;;;;;20.91;77.83;99953.00;5022356;28;20241;-78
2023/07/23 05:18:49;;;;;;;3.10;2.80;;;;;;;21.05;77.83;99956.63;5019814;28;20214;-77
2023/07/23 05:21:14;;;;;;;2.90;2.57;;;;;;;21.07;77.83;99952.13;5025549;28;20695;-77
2023/07/23 05:23:40;;;;;;;4.30;2.97;;;;;;;20.89;77.34;99948.75;5025103;28;20225;-77
2023/07/23 05:26:05;;;;;;;3.30;3.00;;;;;;;20.89;77.58;99947.00;5021479;28;20191;-76
2023/07/23 05:28:30;;;;;;;3.20;2.90;;;;;;;20.75;78.27;99952.16;5020832;28;20226;-78
2023/07/23 05:30:58;;;;;;;2.60;2.40;;;;;;;20.68;78.63;99947.25;5016473;28;20648;-77
2023/07/23 05:33:23;;;;;;;2.70;2.50;;;;;;;20.61;78.67;99952.94;5020102;28;20198;-76
2023/07/23 05:35:49;;;;;;;2.73;2.53;;;;;;;20.52;78.82;99951.66;5017370;28;20231;-76
2023/07/23 05:38:14;;;;;;;2.67;2.43;;;;;;;20.55;78.89;99948.88;5022817;28;20207;-77
2023/07/23 05:40:39;;;;;;;3.00;2.70;;;;;;;20.54;78.71;99955.91;5017667;28;20183;-77
2023/07/23 05:43:17;;;;;;;3.27;2.77;;;;;;;20.54;79.25;99945.41;5018203;28;21018;-78
2023/07/23 05:45:42;;;;;;;3.07;2.70;;;;;;;20.51;79.15;99947.34;5013941;28;20211;-77
2023/07/23 05:48:08;;;;;;;2.70;2.50;;;;;;;20.50;79.62;99954.38;5019160;28;20769;-76
2023/07/23 05:50:33;;;;;;;3.00;2.70;;;;;;;20.54;79.88;99949.81;5023124;28;20270;-76
2023/07/23 05:52:59;;;;;;;2.77;2.43;;;;;;;20.58;79.72;99951.34;5016405;28;20536;-77
2023/07/23 05:55:24;;;;;;;2.90;2.70;;;;;;;20.63;80.06;99957.19;5021676;28;20741;-76
2023/07/23 05:57:50;;;;;;;2.90;2.53;;;;;;;20.68;79.89;99954.28;5016095;28;20194;-76
2023/07/23 06:00:15;;;;;;;2.60;2.40;;;;;;;20.71;79.34;99956.75;5018072;28;20273;-77
2023/07/23 06:02:41;;;;;;;2.90;2.57;;;;;;;20.74;79.49;99958.34;5017582;28;20676;-77
2023/07/23 06:05:06;;;;;;;2.50;2.30;;;;;;;20.76;79.54;99964.41;5024744;28;20186;-77
2023/07/23 06:07:32;;;;;;;3.73;2.97;;;;;;;20.79;79.46;99949.28;5026923;28;20190;-76
2023/07/23 06:09:57;;;;;;;2.93;2.63;;;;;;;20.76;79.34;99959.97;5021086;28;20707;-76
2023/07/23 06:12:22;;;;;;;3.60;2.50;;;;;;;20.83;79.06;99957.84;5020335;28;20194;-77
2023/07/23 06:14:48;;;;;;;2.83;2.57;;;;;;;20.90;78.80;99955.72;5019400;28;20199;-77
2023/07/23 06:17:13;;;;;;;3.50;2.43;;;;;;;20.90;78.72;99950.44;5021793;28;20219;-76
2023/07/23 06:19:38;;;;;;;2.70;2.50;;;;;;;20.94;78.64;99958.09;5024610;28;20219;-77
2023/07/23 06:22:04;;;;;;;2.83;2.50;;;;;;;21.02;78.08;99955.88;5026188;28;20182;-76
2023/07/23 06:24:29;;;;;;;2.50;2.30;;;;;;;21.11;78.18;99959.75;5021588;28;20194;-77
2023/07/23 06:26:54;;;;;;;3.97;2.50;;;;;;;21.23;77.97;99959.94;5023243;28;20186;-76
2023/07/23 06:29:19;;;;;;;2.93;2.63;;;;;;;21.32;77.77;99960.25;5022462;28;20651;-77
2023/07/23 06:31:45;;;;;;;3.57;2.70;;;;;;;21.42;77.62;99949.16;5024239;28;20192;-77
2023/07/23 06:34:10;;;;;;;2.60;2.40;;;;;;;21.43;76.75;99946.47;5026912;28;20176;-77
2023/07/23 06:36:35;;;;;;;3.67;2.80;;;;;;;21.50;76.44;99939.03;5026269;28;20210;-77
2023/07/23 06:39:01;;;;;;;2.53;2.33;;;;;;;21.67;76.38;99942.47;5022202;28;20207;-76
2023/07/23 06:41:27;;;;;;;2.47;2.27;;;;;;;21.81;75.89;99944.25;5028329;28;20860;-77
2023/07/23 06:43:53;;;;;;;3.73;2.53;;;;;;;22.10;75.55;99944.22;5025209;28;20294;-77
2023/07/23 06:46:20;;;;;;;2.73;2.53;;;;;;;22.14;74.40;99943.97;5025518;28;20267;-76
2023/07/23 06:48:46;;;;;;;2.77;2.57;;;;;;;22.31;74.80;99947.31;5026866;28;20265;-76
2023/07/23 06:51:11;;;;;;;2.40;2.20;;;;;;;22.19;74.00;99944.50;5027593;28;20175;-77
2023/07/23 06:53:37;;;;;;;3.03;2.63;;;;;;;22.13;74.47;99954.56;5027162;28;20188;-76
2023/07/23 06:56:15;;;;;;;2.40;2.20;;;;;;;22.15;75.38;99947.44;5017150;28;20212;-76
2023/07/23 06:58:41;;;;;;;2.70;2.50;;;;;;;22.10;75.15;99947.72;5021431;28;20648;-76
2023/07/23 07:01:08;;;;;;;4.37;2.60;;;;;;;22.03;75.28;99949.91;5024651;28;20184;-76
2023/07/23 07:03:34;;;;;;;3.57;2.77;;;;;;;21.87;75.76;99935.97;5022294;28;20222;-76
2023/07/23 07:06:00;;;;;;;2.73;2.53;;;;;;;21.92;75.55;99929.47;5018976;28;20231;-76
2023/07/23 07:08:27;;;;;;;2.50;2.30;;;;;;;21.88;75.48;99938.50;5016702;28;20679;-76
2023/07/23 07:10:59;;;;;;;3.23;2.30;;;;;;;21.85;75.77;99935.22;5020543;28;20184;-77
2023/07/23 07:13:25;;;;;;;2.50;2.10;;;;;;;21.78;75.92;99932.94;5021556;28;20190;-76
2023/07/23 07:15:50;;;;;;;3.87;2.90;;;;;;;21.78;75.99;99930.31;5022020;28;20207;-80
2023/07/23 07:18:15;;;;;;;4.67;2.30;;;;;;;21.81;75.96;99931.06;5021514;28;20223;-76
2023/07/23 07:20:40;;;;;;;2.67;2.47;;;;;;;21.76;75.53;99932.22;5019282;28;20184;-77
2023/07/23 07:23:06;;;;;;;3.70;2.50;;;;;;;21.89;75.22;99931.47;5020815;28;20202;-77
2023/07/23 07:25:31;;;;;;;2.70;2.37;;;;;;;21.93;75.02;99931.16;5020970;28;20792;-77
2023/07/23 07:27:57;;;;;;;3.03;2.60;;;;;;;21.88;73.96;99930.59;5022628;28;20215;-78
2023/07/23 07:30:22;;;;;;;2.67;2.47;;;;;;;22.08;74.13;99926.72;5017736;28;20187;-78
2023/07/23 07:32:47;;;;;;;2.73;2.33;;;;;;;22.32;73.65;99927.88;5015280;28;20287;-77
2023/07/23 07:35:12;;;;;;;2.43;2.00;;;;;;;22.39;73.13;99930.03;5025961;28;20326;-77
2023/07/23 07:37:38;;;;;;;4.47;2.30;;;;;;;22.40;72.41;99930.91;5016191;28;20222;-77
2023/07/23 07:40:04;;;;;;;2.43;2.23;;;;;;;22.29;72.61;99933.38;5018635;28;20256;-77
2023/07/23 07:42:29;;;;;;;2.20;2.00;;;;;;;22.44;72.30;99921.03;5019892;28;20188;-77
2023/07/23 07:44:55;;;;;;;2.80;2.40;;;;;;;22.51;72.24;99925.81;5026540;28;20651;-77
2023/07/23 07:47:20;;;;;;;3.13;2.20;;;;;;;22.64;72.10;99923.22;5020402;28;20204;-78
2023/07/23 07:49:45;;;;;;;2.83;2.63;;;;;;;22.87;71.81;99923.47;5019256;28;20207;-77
2023/07/23 07:52:11;;;;;;;2.40;2.20;;;;;;;22.92;71.46;99920.53;5018721;28;20241;-77
2023/07/23 07:54:36;;;;;;;4.10;2.20;;;;;;;22.92;71.23;99924.03;5020823;28;20195;-77
2023/07/23 07:57:03;;;;;;;2.40;2.20;;;;;;;23.27;70.89;99927.91;5016182;28;20309;-79
2023/07/23 07:59:29;;;;;;;3.30;2.23;;;;;;;23.83;70.45;99924.94;5019069;28;20208;-77
2023/07/23 08:01:54;;;;;;;2.93;2.10;;;;;;;24.13;69.42;99915.81;5015614;28;20207;-77
2023/07/23 08:04:20;;;;;;;2.60;2.40;;;;;;;24.32;68.23;99914.47;5013602;28;20566;-78
2023/07/23 08:06:45;;;;;;;4.30;2.70;;;;;;;24.31;68.65;99918.06;5012015;28;20248;-77
2023/07/23 08:09:12;;;;;;;2.50;2.27;;;;;;;24.81;68.42;99920.63;5021076;28;20253;-78
2023/07/23 08:11:39;;;;;;;2.40;2.20;;;;;;;25.19;67.41;99927.44;5020690;28;21006;-80
2023/07/23 08:14:06;;;;;;;3.50;2.50;;;;;;;25.17;65.71;99918.81;5019208;28;20921;-78
2023/07/23 08:16:32;;;;;;;2.80;2.60;;;;;;;25.28;65.95;99920.59;5019865;28;20444;-77
2023/07/23 08:18:58;;;;;;;2.37;2.17;;;;;;;25.01;65.97;99915.63;5021092;28;20782;-77
2023/07/23 08:21:23;;;;;;;2.87;2.67;;;;;;;25.36;65.62;99918.22;5018864;28;20220;-78
2023/07/23 08:23:49;;;;;;;3.97;2.63;;;;;;;25.57;65.19;99912.25;5018270;28;20679;-78
2023/07/23 08:26:20;;;;;;;2.37;2.17;;;;;;;25.19;65.83;99922.16;5022907;28;20698;-78
2023/07/23 08:28:51;;;;;;;3.37;2.53;;;;;;;25.28;65.71;99910.00;5022935;28;20211;-77
2023/07/23 08:31:18;;;;;;;2.37;2.17;;;;;;;25.03;66.87;99913.72;5022361;28;20184;-78
2023/07/23 08:33:46;;;;;;;2.17;2.07;;;;;;;25.29;66.66;99902.94;5015439;28;20221;-79
2023/07/23 08:36:11;;;;;;;2.70;2.50;;;;;;;25.55;66.73;99904.41;5021967;28;20204;-78
2023/07/23 08:38:37;;;;;;;4.20;2.43;;;;;;;25.24;66.54;99909.41;5018105;28;20234;-77
2023/07/23 08:41:03;;;;;;;3.23;2.07;;;;;;;25.56;66.52;99900.81;5020043;28;20192;-78
2023/07/23 08:44:10;;;;;;;2.57;2.37;;;;;;;25.60;66.35;99897.94;5022787;28;20859;-77
2023/07/23 08:46:44;;;;;;;2.63;1.83;;;;;;;25.89;65.41;99910.69;5021337;28;20194;-78
2023/07/23 08:49:11;;;;;;;2.53;1.97;;;;;;;25.87;65.19;99908.13;5013642;28;20208;-78
2023/07/23 08:51:44;;;;;;;2.30;2.00;;;;;;;26.25;64.98;99896.28;5022731;28;20294;-78
2023/07/23 08:54:11;;;;;;;2.17;1.73;;;;;;;26.29;65.07;99897.75;5022363;28;20297;-78
2023/07/23 08:56:38;;;;;;;2.40;1.90;;;;;;;25.85;64.73;99897.66;5015633;28;20207;-76
2023/07/23 08:59:05;;;;;;;2.30;2.10;;;;;;;26.10;65.56;99900.97;5016161;28;20216;-78
2023/07/23 09:01:39;;;;;;;2.13;1.93;;;;;;;26.13;64.67;99895.47;5015237;28;20207;-77
2023/07/23 09:04:12;;;;;;;4.20;2.93;;;;;;;26.45;64.20;99901.78;5017306;28;20242;-76
2023/07/23 09:06:40;;;;;;;8.13;7.03;;;;;;;26.47;64.70;99902.50;5015335;28;20183;-77
2023/07/23 09:09:07;;;;;;;4.73;3.70;;;;;;;26.56;64.80;99899.09;5014722;28;20223;-78
2023/07/23 09:11:35;;;;;;;7.63;2.97;;;;;;;26.50;64.17;99912.84;5013916;28;20206;-77
2023/07/23 09:14:06;;;;;;;6.30;2.50;;;;;;;26.30;63.83;99899.44;5014493;28;20195;-76
2023/07/23 09:16:34;;;;;;;4.07;2.30;;;;;;;26.50;63.98;99906.72;5013735;28;20759;-76
2023/07/23 09:18:59;;;;;;;3.93;2.60;;;;;;;27.07;63.41;99913.47;5014717;28;20237;-76
2023/07/23 09:21:26;;;;;;;4.00;2.20;;;;;;;27.32;62.90;99906.03;5015033;28;20191;-78
2023/07/23 09:23:57;;;;;;;5.37;2.20;;;;;;;27.60;62.62;99903.72;5014053;28;20184;-76
2023/07/23 09:26:25;;;;;;;2.90;2.00;;;;;;;27.82;62.43;99902.66;5013400;28;20181;-78
2023/07/23 09:28:52;;;;;;;3.50;2.10;;;;;;;27.60;62.97;99902.84;5016328;28;20266;-77
2023/07/23 09:31:24;;;;;;;3.20;2.10;;;;;;;27.81;62.10;99897.47;5021307;28;20206;-76
2023/07/23 09:33:55;;;;;;;7.10;2.60;;;;;;;27.68;62.18;99893.25;5013606;28;20195;-77
2023/07/23 09:36:22;;;;;;;3.03;2.50;;;;;;;27.72;61.97;99890.31;5016833;28;20749;-78
2023/07/23 09:38:54;;;;;;;3.30;2.30;;;;;;;27.81;62.49;99890.34;5011257;28;20234;-78
2023/07/23 09:41:20;;;;;;;2.60;2.20;;;;;;;27.83;62.18;99885.72;5011791;28;20191;-77
2023/07/23 09:43:46;;;;;;;4.77;2.07;;;;;;;27.89;62.05;99894.13;5016389;28;20183;-78
2023/07/23 09:46:11;;;;;;;3.20;2.03;;;;;;;28.03;62.16;99891.09;5017611;28;20199;-78
2023/07/23 09:48:45;;;;;;;2.30;2.10;;;;;;;28.00;62.30;99891.34;5016145;28;20210;-78
2023/07/23 09:51:10;;;;;;;3.90;2.70;;;;;;;27.66;62.88;99881.06;5017679;28;20188;-79
2023/07/23 09:53:41;;;;;;;2.40;2.20;;;;;;;28.02;62.74;99894.72;5014064;28;20542;-79
2023/07/23 09:56:08;;;;;;;3.63;2.73;;;;;;;27.68;62.30;99889.75;5014789;28;20215;-78
2023/07/23 09:58:35;;;;;;;4.67;2.63;;;;;;;27.80;62.49;99887.81;5017689;28;20211;-78
2023/07/23 10:01:00;;;;;;;4.43;2.40;;;;;;;27.77;62.95;99877.44;5013510;28;20311;-77
2023/07/23 10:03:26;;;;;;;2.60;2.40;;;;;;;27.72;63.27;99885.00;5017177;28;20626;-78
2023/07/23 10:05:51;;;;;;;3.17;2.73;;;;;;;27.95;63.35;99893.59;5019116;28;20184;-78
2023/07/23 10:08:20;;;;;;;5.37;3.00;;;;;;;27.78;62.31;99887.09;5014314;28;20231;-77
2023/07/23 10:10:45;;;;;;;4.80;2.80;;;;;;;28.21;61.80;99883.28;5013786;28;20196;-80
2023/07/23 10:13:11;;;;;;;4.90;3.10;;;;;;;28.20;62.00;99886.97;5017636;28;20183;-78
2023/07/23 10:15:37;;;;;;;8.67;3.23;;;;;;;28.20;61.49;99872.81;5020663;28;20679;-79
2023/07/23 10:18:04;;;;;;;2.80;2.60;;;;;;;28.44;61.50;99872.41;5013499;28;20645;-80
2023/07/23 10:20:31;;;;;;;4.27;3.17;;;;;;;28.18;62.40;99867.63;5015339;28;20208;-78
2023/07/23 10:22:57;;;;;;;3.73;2.43;;;;;;;28.59;61.58;99860.34;5018381;28;20188;-78
2023/07/23 10:25:31;;;;;;;3.50;3.17;;;;;;;28.28;61.56;99878.28;5016450;28;21083;-79
2023/07/23 10:28:01;;;;;;;3.17;2.93;;;;;;;27.81;62.50;99879.72;5014571;28;20223;-77
2023/07/23 10:30:28;;;;;;;2.43;2.23;;;;;;;27.82;62.13;99875.22;5013019;28;20184;-77
2023/07/23 10:33:26;;;;;;;2.90;2.60;;;;;;;28.31;62.08;99869.19;5015986;28;20203;-78
2023/07/23 10:35:54;;;;;;;3.00;2.70;;;;;;;28.12;63.47;99866.38;5012720;28;20237;-76
2023/07/23 10:38:21;;;;;;;3.33;2.90;;;;;;;27.81;63.31;99866.41;5014393;28;20250;-77
2023/07/23 10:40:47;;;;;;;2.50;2.30;;;;;;;27.92;63.25;99860.13;5015391;28;20326;-77
2023/07/23 10:43:13;;;;;;;2.50;2.30;;;;;;;28.13;62.88;99861.88;5016739;28;20200;-78
2023/07/23 10:45:45;;;;;;;3.43;3.07;;;;;;;28.11;62.45;99855.84;5011043;28;20806;-79
2023/07/23 10:48:17;;;;;;;2.43;2.23;;;;;;;28.46;62.36;99854.47;5029259;28;20292;-78
2023/07/23 10:51:00;;;;;;;2.73;2.53;;;;;;;28.10;62.17;99849.72;5013343;28;20188;-77
2023/07/23 10:53:30;;;;;;;5.17;2.50;;;;;;;27.93;62.09;99858.31;5016246;28;20196;-77
2023/07/23 10:55:59;;;;;;;4.33;2.60;;;;;;;28.52;61.75;99848.56;5015646;28;20291;-76
2023/07/23 10:58:26;;;;;;;5.07;2.73;;;;;;;28.63;60.96;99852.91;5016773;28;20211;-77
2023/07/23 11:00:59;;;;;;;5.33;2.93;;;;;;;28.43;61.15;99852.09;5018796;28;20198;-79
2023/07/23 11:03:25;;;;;;;2.80;2.60;;;;;;;28.71;61.12;99841.56;5018508;28;20188;-78
2023/07/23 11:05:52;;;;;;;4.77;2.80;;;;;;;28.67;60.81;99846.34;5011415;28;20910;-76
2023/07/23 11:08:24;;;;;;;2.60;2.40;;;;;;;28.99;60.53;99841.66;5019250;28;20227;-78
2023/07/23 11:11:05;;;;;;;2.90;2.70;;;;;;;28.78;60.92;99844.53;5018244;28;20214;-77
2023/07/23 11:13:35;;;;;;;2.83;2.40;;;;;;;29.13;60.62;99840.38;5013465;28;20188;-77
2023/07/23 11:16:01;;;;;;;2.60;2.40;;;;;;;29.14;60.80;99837.56;5016326;28;20306;-78
2023/07/23 11:18:32;;;;;;;2.83;2.23;;;;;;;29.11;61.10;99826.34;5019301;28;20203;-77
2023/07/23 11:20:59;;;;;;;2.50;2.30;;;;;;;29.13;60.50;99825.22;5038055;28;20241;-77
2023/07/23 11:23:25;;;;;;;2.40;2.20;;;;;;;28.71;60.64;99825.59;5019333;28;20741;-77
2023/07/23 11:25:52;;;;;;;2.83;2.50;;;;;;;28.92;60.70;99822.75;5015370;28;20655;-78
2023/07/23 11:28:19;;;;;;;2.37;2.10;;;;;;;28.93;61.10;99819.13;5018397;28;20246;-77
2023/07/23 11:30:46;;;;;;;2.77;2.50;;;;;;;29.04;60.43;99808.28;5018689;28;20187;-78